Terminal Aerodrome Forecast
Issued by NWS Raleigh/Durham, NC

Home | Current Version | Previous Version | Text Only | Print | Product List | Glossary On
Versions: 1 2 3 4 5 6 7 8 9 10 11 12 13 14 15 16 17 18 19 20 21 22 23 24 25 26 27 28 29 30 31 32 33 34 35
000
FTUS42 KRAH 272333
TAFRDU
TAF
KRDU 272333Z 2800/2824 16003KT P6SM SCT030 OVC100
     FM280800 19002KT 4SM BR SCT009 BKN025
     FM281400 16004KT P6SM BKN035
     FM282000 16004KT P6SM VCTS BKN035CB=

USA.gov is the U.S. government's official web portal to all federal, state and local government web resources and services.